createdAt,value
2018-11-13T00:01:51.526Z,94.04
2018-11-13T00:05:59.003Z,94.04
2018-11-13T00:10:12.987Z,94.01
2018-11-13T00:14:20.441Z,94.11
2018-11-13T00:18:27.693Z,94.18
2018-11-13T00:22:35.090Z,94.63
2018-11-13T00:26:42.469Z,94.31
2018-11-13T00:30:49.851Z,94.73
2018-11-13T00:34:59.992Z,95.78
2018-11-13T00:39:12.828Z,95.80
2018-11-13T00:43:20.267Z,95.51
2018-11-13T00:47:30.485Z,95.44
2018-11-13T00:51:38.861Z,95.46
2018-11-13T00:55:47.167Z,95.45
2018-11-13T00:59:55.104Z,95.35
2018-11-13T01:04:02.508Z,95.22
2018-11-13T01:08:12.775Z,95.44
2018-11-13T01:12:23.235Z,95.58
2018-11-13T01:16:33.913Z,95.58
2018-11-13T01:20:43.480Z,95.42
2018-11-13T01:24:51.958Z,95.26
2018-11-13T01:29:04.418Z,95.28
2018-11-13T01:33:11.670Z,95.35
2018-11-13T01:37:18.778Z,95.62
2018-11-13T01:41:25.960Z,95.92
2018-11-13T01:45:33.489Z,95.94
2018-11-13T01:49:42.673Z,95.98
2018-11-13T01:53:50.227Z,95.98
2018-11-13T01:57:57.531Z,95.64
2018-11-13T02:02:04.922Z,95.83
2018-11-13T02:06:12.198Z,96.43
2018-11-13T02:10:19.704Z,96.68
2018-11-13T02:14:27.023Z,96.61
2018-11-13T02:18:34.346Z,96.58
2018-11-13T02:22:42.239Z,96.45
2018-11-13T02:26:49.603Z,96.20
2018-11-13T02:30:58.649Z,96.29
2018-11-13T02:35:04.646Z,96.50
2018-11-13T02:39:12.245Z,96.67
2018-11-13T02:43:19.656Z,96.52
2018-11-13T02:47:27.073Z,96.34
2018-11-13T02:51:34.809Z,96.09
2018-11-13T02:55:42.164Z,95.98
2018-11-13T02:59:50.611Z,95.97
2018-11-13T03:03:57.929Z,96.18
2018-11-13T03:08:05.587Z,96.06
2018-11-13T03:12:12.836Z,96.06
2018-11-13T03:16:22.825Z,95.95
2018-11-13T03:20:30.141Z,95.14
2018-11-13T03:24:37.459Z,94.72
2018-11-13T03:28:44.682Z,95.39
2018-11-13T03:32:52.095Z,95.60
2018-11-13T03:36:59.431Z,95.34
2018-11-13T03:41:06.703Z,95.35
2018-11-13T03:45:14.445Z,94.24
2018-11-13T03:49:21.547Z,93.72
2018-11-13T03:53:31.780Z,93.74
2018-11-13T03:57:39.452Z,93.99
2018-11-13T04:01:46.677Z,93.56
2018-11-13T04:05:54.111Z,93.45
2018-11-13T04:10:01.270Z,93.47
2018-11-13T04:14:08.714Z,93.36
2018-11-13T04:18:15.930Z,92.73
2018-11-13T04:22:23.207Z,92.64
2018-11-13T04:26:30.360Z,92.64
2018-11-13T04:30:37.713Z,92.77
2018-11-13T04:34:44.912Z,92.77
2018-11-13T04:38:52.629Z,93.51
2018-11-13T04:42:59.926Z,93.51
2018-11-13T04:47:08.071Z,93.83
2018-11-13T04:51:15.331Z,93.83
2018-11-13T04:55:22.817Z,94.42
2018-11-13T04:59:29.897Z,94.58
2018-11-13T05:03:37.146Z,94.40
2018-11-13T05:07:51.670Z,94.12
2018-11-13T05:11:58.884Z,94.17
2018-11-13T05:16:06.546Z,93.72
2018-11-13T05:20:14.781Z,93.74
2018-11-13T05:24:21.978Z,94.23
2018-11-13T05:28:29.315Z,94.47
2018-11-13T05:32:38.325Z,94.50
2018-11-13T05:40:50.990Z,94.77
2018-11-13T05:44:58.196Z,95.02
2018-11-13T05:49:05.542Z,95.08
2018-11-13T05:53:12.677Z,95.24
2018-11-13T05:57:19.882Z,95.50
2018-11-13T06:01:27.222Z,95.21
2018-11-13T06:05:34.653Z,95.74
2018-11-13T06:09:42.029Z,95.74
2018-11-13T06:13:50.462Z,95.61
2018-11-13T06:17:58.146Z,95.84
2018-11-13T06:22:05.621Z,95.58
2018-11-13T06:26:15.581Z,95.58
2018-11-13T06:30:24.419Z,95.54
2018-11-13T06:34:31.846Z,95.67
2018-11-13T06:38:38.967Z,95.58
2018-11-13T06:42:46.291Z,95.73
2018-11-13T06:46:53.493Z,95.73
2018-11-13T06:51:00.845Z,95.39
2018-11-13T06:55:28.043Z,95.46
2018-11-13T06:59:35.382Z,95.64
2018-11-13T07:03:46.540Z,95.25
2018-11-13T07:07:53.646Z,95.27
2018-11-13T07:12:01.205Z,95.14
2018-11-13T07:16:08.898Z,95.26
2018-11-13T07:20:16.982Z,94.97
2018-11-13T07:24:24.316Z,95.32
2018-11-13T07:28:36.563Z,95.35
2018-11-13T07:32:43.910Z,95.17
2018-11-13T07:36:51.553Z,95.22
2018-11-13T07:40:58.806Z,95.22
2018-11-13T07:45:06.669Z,94.91
2018-11-13T07:49:13.866Z,94.91
2018-11-13T07:53:21.038Z,95.55
2018-11-13T07:57:28.499Z,95.81
2018-11-13T08:01:35.643Z,95.79
2018-11-13T08:05:42.885Z,95.07
2018-11-13T08:09:50.077Z,95.07
2018-11-13T08:13:57.345Z,95.04
2018-11-13T08:18:04.535Z,94.77
2018-11-13T08:22:11.829Z,94.84
2018-11-13T08:26:18.946Z,94.88
2018-11-13T08:30:36.828Z,94.23
2018-11-13T08:34:43.311Z,94.01
2018-11-13T08:38:50.747Z,94.01
2018-11-13T08:43:23.840Z,93.70
2018-11-13T08:47:47.203Z,93.64
2018-11-13T08:52:27.276Z,93.42
2018-11-13T08:56:35.756Z,93.28
2018-11-13T09:00:43.791Z,93.03
2018-11-13T09:04:51.177Z,92.29
2018-11-13T09:08:58.485Z,92.29
2018-11-13T09:13:06.254Z,92.13
2018-11-13T09:17:15.337Z,92.16
2018-11-13T09:21:22.463Z,92.48
2018-11-13T09:25:29.859Z,92.36
2018-11-13T09:29:37.135Z,91.33
2018-11-13T09:33:44.361Z,91.46
2018-11-13T09:38:12.916Z,90.47
2018-11-13T09:42:20.283Z,89.95
2018-11-13T09:46:27.694Z,89.04
2018-11-13T09:50:34.976Z,88.33
2018-11-13T09:54:42.226Z,87.90
2018-11-13T09:58:49.566Z,85.93
2018-11-13T10:03:01.180Z,85.93
2018-11-13T10:07:08.280Z,86.20
2018-11-13T10:11:15.356Z,85.32
2018-11-13T10:15:24.018Z,84.86
2018-11-13T10:19:31.264Z,85.46
2018-11-13T10:23:38.815Z,85.16
2018-11-13T10:27:47.178Z,85.57
2018-11-13T10:31:54.364Z,85.32
2018-11-13T10:36:01.547Z,85.85
2018-11-13T10:40:11.492Z,85.12
2018-11-13T10:44:18.781Z,84.76
2018-11-13T10:48:26.223Z,84.34
2018-11-13T10:52:33.456Z,83.80
2018-11-13T10:56:40.914Z,83.80
2018-11-13T11:01:19.184Z,83.76
2018-11-13T11:05:27.853Z,84.22
2018-11-13T11:09:35.078Z,83.25
2018-11-13T11:13:42.680Z,82.43
2018-11-13T11:17:49.923Z,82.46
2018-11-13T11:21:57.273Z,81.30
2018-11-13T11:26:04.621Z,79.40
2018-11-13T11:30:14.863Z,80.07
2018-11-13T11:34:22.212Z,79.77
2018-11-13T11:38:29.667Z,79.23
2018-11-13T11:42:37.203Z,77.20
2018-11-13T11:46:44.385Z,76.94
2018-11-13T11:50:51.640Z,76.94
2018-11-13T11:54:59.177Z,76.06
2018-11-13T11:59:06.704Z,76.69
2018-11-13T12:03:14.178Z,76.32
2018-11-13T12:07:21.666Z,75.29
2018-11-13T12:11:28.972Z,74.29
2018-11-13T12:15:36.236Z,69.98
2018-11-13T12:19:43.430Z,67.00
2018-11-13T12:23:50.879Z,64.64
2018-11-13T12:27:58.122Z,63.89
2018-11-13T12:32:05.525Z,62.76
2018-11-13T12:36:12.955Z,62.52
2018-11-13T12:40:21.915Z,59.39
2018-11-13T12:44:29.051Z,58.50
2018-11-13T12:52:44.129Z,58.98
2018-11-13T12:56:51.442Z,58.18
2018-11-13T13:00:58.719Z,55.91
2018-11-13T13:05:06.612Z,57.51
2018-11-13T13:09:13.832Z,59.35
2018-11-13T13:13:21.206Z,58.93
2018-11-13T13:17:28.801Z,60.17
2018-11-13T13:21:36.263Z,60.80
2018-11-13T13:25:43.724Z,61.44
2018-11-13T13:29:50.912Z,62.10
2018-11-13T13:33:58.361Z,62.25
2018-11-13T13:38:06.740Z,60.90
2018-11-13T13:42:14.487Z,61.61
2018-11-13T13:46:21.731Z,62.13
2018-11-13T13:50:29.043Z,60.11
2018-11-13T13:54:36.928Z,59.45
2018-11-13T13:58:44.482Z,59.72
2018-11-13T14:02:54.427Z,59.95
2018-11-13T14:06:59.868Z,60.85
2018-11-13T14:11:10.789Z,60.84
2018-11-13T14:15:19.951Z,61.00
2018-11-13T14:19:27.641Z,61.12
2018-11-13T14:23:35.186Z,60.87
2018-11-13T14:27:44.541Z,60.87
2018-11-13T14:31:58.472Z,60.60
2018-11-13T14:36:08.695Z,60.32
2018-11-13T14:40:50.319Z,60.60
2018-11-13T14:44:59.403Z,60.68
2018-11-13T14:49:26.265Z,60.21
2018-11-13T14:53:33.533Z,60.43
2018-11-13T14:57:40.832Z,60.43
2018-11-13T15:01:48.329Z,61.02
2018-11-13T15:05:55.714Z,61.24
2018-11-13T15:10:03.930Z,61.35
2018-11-13T15:14:11.091Z,61.43
2018-11-13T15:18:18.506Z,61.41
2018-11-13T15:22:26.192Z,61.43
2018-11-13T15:26:33.345Z,61.43
2018-11-13T15:30:47.227Z,61.53
2018-11-13T15:34:55.839Z,61.62
2018-11-13T15:39:05.601Z,62.01
2018-11-13T15:43:12.783Z,63.21
2018-11-13T15:47:20.286Z,63.21
2018-11-13T15:51:29.464Z,65.59
2018-11-13T15:55:39.585Z,67.08
2018-11-13T15:59:50.016Z,66.89
2018-11-13T16:03:58.239Z,67.07
2018-11-13T16:08:06.881Z,66.66
2018-11-13T16:12:14.070Z,66.75
2018-11-13T16:16:24.680Z,67.20
2018-11-13T16:20:32.318Z,66.90
2018-11-13T16:24:42.484Z,67.14
2018-11-13T16:28:49.723Z,67.17
2018-11-13T16:32:57.346Z,67.13
2018-11-13T16:37:04.834Z,67.28
2018-11-13T16:41:12.332Z,67.26
2018-11-13T16:45:21.042Z,67.05
2018-11-13T16:49:28.593Z,67.12
2018-11-13T16:53:55.289Z,67.58
2018-11-13T16:58:04.443Z,67.19
2018-11-13T17:02:12.005Z,67.65
2018-11-13T17:06:43.262Z,67.91
2018-11-13T17:10:56.430Z,68.39
2018-11-13T17:15:04.382Z,68.97
2018-11-13T17:19:18.803Z,68.95
2018-11-13T17:23:32.962Z,69.02
2018-11-13T17:28:17.579Z,69.26
2018-11-13T17:32:26.805Z,69.22
2018-11-13T17:36:34.498Z,69.49
2018-11-13T17:40:41.856Z,70.07
2018-11-13T17:44:49.059Z,70.40
2018-11-13T17:48:58.837Z,70.42
2018-11-13T17:53:07.158Z,71.33
2018-11-13T17:57:14.653Z,71.63
2018-11-13T18:01:21.922Z,71.95
2018-11-13T18:05:29.847Z,72.16
2018-11-13T18:09:37.146Z,72.39
2018-11-13T18:13:44.684Z,72.65
2018-11-13T18:17:52.646Z,72.65
2018-11-13T18:22:00.004Z,72.75
2018-11-13T18:26:08.881Z,72.92
2018-11-13T18:30:40.164Z,73.16
2018-11-13T18:34:53.987Z,73.39
2018-11-13T18:39:02.290Z,73.75
2018-11-13T18:43:10.112Z,73.91
2018-11-13T18:47:17.550Z,73.84
2018-11-13T18:51:24.752Z,74.45
2018-11-13T18:55:32.073Z,74.44
2018-11-13T18:59:39.289Z,74.79
2018-11-13T19:03:46.754Z,75.15
2018-11-13T19:07:54.187Z,75.15
2018-11-13T19:12:01.521Z,75.06
2018-11-13T19:16:11.353Z,75.46
2018-11-13T19:20:20.358Z,75.74
2018-11-13T19:24:27.721Z,76.45
2018-11-13T19:28:35.075Z,76.87
2018-11-13T19:32:42.595Z,76.75
2018-11-13T19:36:49.795Z,77.13
2018-11-13T19:40:57.064Z,77.26
2018-11-13T19:45:04.569Z,77.97
2018-11-13T19:49:12.287Z,78.33
2018-11-13T19:53:20.161Z,78.40
2018-11-13T19:57:28.338Z,78.75
2018-11-13T20:01:36.087Z,78.62
2018-11-13T20:05:58.068Z,78.65
2018-11-13T20:10:03.538Z,79.28
2018-11-13T20:14:18.899Z,79.89
2018-11-13T20:23:30.840Z,80.00
2018-11-13T20:27:53.448Z,80.68
2018-11-13T20:32:01.204Z,80.81
2018-11-13T20:36:08.760Z,80.79
2018-11-13T20:40:24.769Z,81.04
2018-11-13T20:44:38.454Z,81.18
2018-11-13T20:49:09.961Z,81.53
2018-11-13T20:53:59.876Z,81.38
2018-11-13T20:58:46.774Z,81.84
2018-11-13T21:03:19.175Z,82.16
2018-11-13T21:07:27.416Z,82.33
2018-11-13T21:11:35.137Z,82.06
2018-11-13T21:15:48.960Z,82.07
2018-11-13T21:20:15.324Z,82.32
2018-11-13T21:24:33.071Z,82.42
2018-11-13T21:28:40.615Z,82.69
2018-11-13T21:32:48.736Z,82.59
2018-11-13T21:36:55.988Z,82.85
2018-11-13T21:41:03.966Z,82.94
2018-11-13T21:45:12.744Z,83.40
2018-11-13T21:49:20.892Z,83.84
2018-11-13T21:53:28.355Z,84.44
2018-11-13T21:57:36.748Z,83.75
2018-11-13T22:01:43.975Z,83.68
2018-11-13T22:05:51.657Z,84.08
2018-11-13T22:09:59.372Z,84.18
2018-11-13T22:14:11.588Z,84.20
2018-11-13T22:18:17.067Z,84.56
2018-11-13T22:22:24.315Z,84.83
2018-11-13T22:26:42.538Z,84.78
2018-11-13T22:30:49.692Z,85.23
2018-11-13T22:34:56.943Z,85.51
2018-11-13T22:39:04.546Z,85.65
2018-11-13T22:43:11.709Z,85.84
2018-11-13T22:47:18.939Z,85.59
2018-11-13T22:51:26.215Z,86.03
2018-11-13T22:55:33.407Z,86.17
2018-11-13T22:59:40.640Z,86.15
2018-11-13T23:03:47.892Z,86.18
2018-11-13T23:07:55.297Z,86.22
2018-11-13T23:12:02.662Z,86.41
2018-11-13T23:16:09.864Z,86.53
2018-11-13T23:20:18.426Z,86.41
2018-11-13T23:24:25.613Z,86.54
2018-11-13T23:28:32.875Z,86.56
2018-11-13T23:32:40.238Z,86.76
2018-11-13T23:36:47.343Z,86.86
2018-11-13T23:40:54.600Z,86.93
2018-11-13T23:45:01.827Z,87.38
2018-11-13T23:49:09.130Z,87.10
2018-11-13T23:53:16.352Z,86.97
2018-11-13T23:57:23.691Z,87.30
